TimeCDT,TemperatureF,Dew PointF,Humidity,Sea Level PressureIn,VisibilityMPH,Wind Direction,Wind SpeedMPH,Gust SpeedMPH,PrecipitationIn,Events,Conditions,WindDirDegrees,DateUTC
12:54 AM,25.0,18.0,75,30.33,10.0,NW,10.4,-,N/A,,Mostly Cloudy,320,2013-03-25 05:54:00
1:54 AM,21.9,16.0,78,30.35,10.0,NNW,13.8,-,N/A,,Clear,330,2013-03-25 06:54:00
2:54 AM,19.9,14.0,78,30.35,10.0,NW,11.5,-,N/A,,Clear,320,2013-03-25 07:54:00
3:54 AM,19.0,12.0,74,30.35,10.0,NW,11.5,-,N/A,,Clear,320,2013-03-25 08:54:00
4:54 AM,17.1,10.9,77,30.35,10.0,NW,9.2,-,N/A,,Clear,320,2013-03-25 09:54:00
5:54 AM,16.0,10.0,77,30.37,10.0,NNW,12.7,-,N/A,,Clear,330,2013-03-25 10:54:00
6:54 AM,15.1,9.0,77,30.38,10.0,NNW,13.8,-,N/A,,Clear,330,2013-03-25 11:54:00
7:54 AM,15.1,8.1,74,30.40,10.0,NNW,15.0,-,N/A,,Clear,330,2013-03-25 12:54:00
8:54 AM,18.0,10.0,71,30.43,10.0,NNW,17.3,-,N/A,,Clear,330,2013-03-25 13:54:00
9:54 AM,21.9,10.9,63,30.43,10.0,North,17.3,-,N/A,,Clear,350,2013-03-25 14:54:00
10:54 AM,26.1,10.9,53,30.44,10.0,NNW,18.4,24.2,N/A,,Clear,330,2013-03-25 15:54:00
11:54 AM,28.0,10.0,47,30.43,10.0,NNW,18.4,26.5,N/A,,Clear,340,2013-03-25 16:54:00
12:54 PM,28.9,10.0,45,30.42,10.0,NNW,21.9,28.8,N/A,,Clear,340,2013-03-25 17:54:00
1:54 PM,30.9,12.0,46,30.41,10.0,NNW,19.6,27.6,N/A,,Clear,330,2013-03-25 18:54:00
2:54 PM,32.0,10.9,42,30.40,10.0,NNW,18.4,28.8,N/A,,Clear,340,2013-03-25 19:54:00
3:54 PM,34.0,10.0,37,30.38,10.0,NNW,23.0,31.1,N/A,,Clear,340,2013-03-25 20:54:00
4:54 PM,35.1,9.0,34,30.38,10.0,NNW,21.9,27.6,N/A,,Clear,340,2013-03-25 21:54:00
5:54 PM,34.0,10.0,37,30.38,10.0,NNW,21.9,31.1,N/A,,Clear,340,2013-03-25 22:54:00
6:54 PM,32.0,10.9,42,30.39,10.0,North,17.3,-,N/A,,Clear,350,2013-03-25 23:54:00
7:54 PM,28.0,12.0,51,30.41,10.0,North,12.7,-,N/A,,Clear,350,2013-03-26 00:54:00
8:54 PM,23.0,12.0,63,30.42,10.0,NNW,9.2,-,N/A,,Clear,340,2013-03-26 01:54:00
9:54 PM,19.9,12.9,74,30.43,10.0,North,10.4,-,N/A,,Clear,350,2013-03-26 02:54:00
10:54 PM,19.0,12.0,74,30.43,10.0,NNW,9.2,-,N/A,,Clear,340,2013-03-26 03:54:00
11:54 PM,18.0,12.0,78,30.44,10.0,NW,5.8,-,N/A,,Clear,320,2013-03-26 04:54:00